Time;durP1;ratioP1;P1;durP2;ratioP2;P2;SDS_P1;SDS_P2;PMS_P1;PMS_P2;Temp;Humidity;BMP_temperature;BMP_pressure;BME280_temperature;BME280_humidity;BME280_pressure;Samples;Min_cycle;Max_cycle;Signal;HPM_P1;HPM_P2
2023/11/19 00:00:53;;;;;;;8.48;3.28;;;17.60;73.00;19.00;100588.00;;;;5081136;28;20256;-77
2023/11/19 00:03:20;;;;;;;4.45;2.92;;;17.60;73.00;19.00;100594.00;;;;5083190;28;20226;-77
2023/11/19 00:05:47;;;;;;;5.05;3.10;;;17.60;72.90;19.00;100593.00;;;;5070188;28;20201;-77
2023/11/19 00:08:14;;;;;;;5.20;2.40;;;17.60;72.90;19.00;100579.00;;;;5072881;28;20225;-77
2023/11/19 00:10:41;;;;;;;4.82;2.63;;;17.60;72.90;19.00;100579.00;;;;5075682;28;20201;-78
2023/11/19 00:13:10;;;;;;;6.95;2.45;;;17.60;72.90;19.00;100565.00;;;;5075447;28;20194;-77
2023/11/19 00:15:37;;;;;;;7.53;2.75;;;17.60;72.90;19.00;100567.00;;;;5071532;28;20244;-77
2023/11/19 00:18:05;;;;;;;7.93;3.05;;;17.60;72.90;19.00;100571.00;;;;5076135;28;20556;-77
2023/11/19 00:20:32;;;;;;;9.20;3.20;;;17.60;72.90;19.00;100567.00;;;;5078212;28;20206;-77
2023/11/19 00:23:01;;;;;;;10.10;2.92;;;17.60;72.80;19.00;100575.00;;;;5070363;28;20218;-77
2023/11/19 00:25:28;;;;;;;5.03;2.00;;;17.60;72.80;19.00;100576.00;;;;5076197;28;20560;-77
2023/11/19 00:27:56;;;;;;;5.18;1.92;;;17.60;72.90;19.00;100569.00;;;;5085155;28;20190;-77
2023/11/19 00:30:23;;;;;;;7.90;2.60;;;17.60;72.90;19.00;100571.00;;;;5085597;28;20202;-78
2023/11/19 00:32:50;;;;;;;10.90;2.17;;;17.60;72.80;19.00;100569.00;;;;5076125;28;20182;-77
2023/11/19 00:35:18;;;;;;;9.80;2.63;;;17.60;72.80;19.00;100578.00;;;;5088760;28;20224;-78
2023/11/19 00:37:47;;;;;;;13.27;2.28;;;17.60;72.80;19.00;100579.00;;;;5089663;28;20197;-77
2023/11/19 00:40:15;;;;;;;7.32;1.75;;;17.60;72.80;19.00;100574.00;;;;5072570;28;20226;-78
2023/11/19 00:42:42;;;;;;;7.55;2.80;;;17.60;72.80;19.00;100586.00;;;;5087022;28;20214;-77
2023/11/19 00:45:12;;;;;;;7.55;1.77;;;17.60;72.80;19.00;100569.00;;;;5089623;28;20198;-77
2023/11/19 00:47:39;;;;;;;5.70;2.05;;;17.60;72.80;19.00;100569.00;;;;5075331;28;20197;-78
2023/11/19 00:50:09;;;;;;;6.57;2.30;;;17.60;72.80;19.00;100576.00;;;;5088224;28;20194;-77
2023/11/19 00:52:38;;;;;;;9.18;2.58;;;17.60;72.80;19.00;100556.00;;;;5088924;28;20241;-77
2023/11/19 00:55:06;;;;;;;10.30;1.95;;;17.70;72.80;19.00;100545.00;;;;5089892;28;20243;-77
2023/11/19 00:57:33;;;;;;;6.18;1.90;;;17.60;72.70;19.00;100548.00;;;;5087309;28;20201;-78
2023/11/19 01:00:00;;;;;;;9.30;2.42;;;17.60;72.60;19.00;100539.00;;;;5078952;28;20197;-78
2023/11/19 01:02:27;;;;;;;6.10;1.75;;;17.60;72.60;19.00;100553.00;;;;5069725;28;20194;-77
2023/11/19 01:04:55;;;;;;;12.20;2.78;;;17.60;72.50;19.00;100545.00;;;;5077290;28;20197;-77
2023/11/19 01:07:24;;;;;;;7.20;2.08;;;17.60;72.50;19.00;100546.00;;;;5070183;28;20205;-78
2023/11/19 01:09:52;;;;;;;10.57;3.22;;;17.60;72.50;19.00;100546.00;;;;5078473;28;20223;-77
2023/11/19 01:12:19;;;;;;;11.32;2.22;;;17.60;73.30;19.00;100548.00;;;;5072031;28;20218;-78
2023/11/19 01:14:46;;;;;;;11.15;2.22;;;17.60;72.50;19.00;100551.00;;;;5079363;28;20205;-77
2023/11/19 01:17:13;;;;;;;8.88;2.65;;;17.60;72.50;19.00;100557.00;;;;5072098;28;20209;-77
2023/11/19 01:19:40;;;;;;;7.25;2.08;;;17.60;72.50;19.00;100546.00;;;;5082211;28;20202;-77
2023/11/19 01:22:08;;;;;;;8.57;2.00;;;17.60;72.50;19.00;100536.00;;;;5084532;28;20194;-77
2023/11/19 01:24:34;;;;;;;9.98;2.28;;;17.60;72.40;19.00;100530.00;;;;5069797;28;20249;-78
2023/11/19 01:27:03;;;;;;;8.75;1.88;;;17.60;72.40;19.00;100524.00;;;;5084567;28;20194;-77
2023/11/19 01:29:30;;;;;;;13.10;2.22;;;17.60;72.40;19.00;100530.00;;;;5073581;28;20293;-78
2023/11/19 01:31:57;;;;;;;19.13;3.08;;;17.60;72.40;19.00;100526.00;;;;5080464;28;20586;-78
2023/11/19 01:34:24;;;;;;;7.15;2.03;;;17.60;72.30;19.00;100533.00;;;;5069954;28;20238;-77
2023/11/19 01:36:51;;;;;;;9.65;2.10;;;17.60;72.30;19.00;100524.00;;;;5071920;28;20203;-77
2023/11/19 01:39:19;;;;;;;10.73;2.72;;;17.60;72.30;19.00;100524.00;;;;5072307;28;20202;-78
2023/11/19 01:41:46;;;;;;;9.23;2.55;;;17.60;72.20;19.00;100540.00;;;;5087455;28;20216;-77
2023/11/19 01:44:15;;;;;;;8.90;1.98;;;17.60;72.20;19.00;100539.00;;;;5087202;28;20226;-77
2023/11/19 01:46:45;;;;;;;10.13;2.42;;;17.60;72.20;19.00;100533.00;;;;5088484;28;20190;-77
2023/11/19 01:49:12;;;;;;;14.70;3.03;;;17.60;72.10;19.00;100527.00;;;;5083762;28;20195;-77
2023/11/19 01:51:40;;;;;;;15.40;2.90;;;17.60;72.00;19.00;100533.00;;;;5068228;28;20522;-77
2023/11/19 01:54:08;;;;;;;12.80;3.28;;;17.60;72.00;19.00;100524.00;;;;5069094;28;20195;-77
2023/11/19 01:56:38;;;;;;;15.15;3.13;;;17.60;72.00;19.00;100517.00;;;;5068166;28;20199;-77
2023/11/19 01:59:05;;;;;;;14.70;2.58;;;17.60;72.00;19.00;100515.00;;;;5070817;28;20199;-77
2023/11/19 02:01:39;;;;;;;6.45;2.35;;;17.60;71.90;19.00;100522.00;;;;5075302;28;20213;-78
2023/11/19 02:04:07;;;;;;;11.52;3.03;;;17.60;71.80;19.00;100523.00;;;;5076894;28;20229;-78
2023/11/19 02:06:38;;;;;;;11.20;2.33;;;17.60;71.60;18.90;100515.00;;;;5080057;28;20194;-77
2023/11/19 02:09:07;;;;;;;10.60;2.17;;;17.60;71.50;18.90;100516.00;;;;5084748;28;20202;-77
2023/11/19 02:11:35;;;;;;;9.77;2.67;;;17.50;71.40;18.90;100517.00;;;;5072892;28;20226;-76
2023/11/19 02:14:03;;;;;;;16.40;2.80;;;17.50;71.30;18.80;100520.00;;;;5083941;28;20255;-77
2023/11/19 02:16:30;;;;;;;13.55;2.88;;;17.50;71.20;18.80;100522.00;;;;5071887;28;20755;-77
2023/11/19 02:18:58;;;;;;;8.32;2.20;;;17.40;71.20;18.80;100523.00;;;;5075536;28;20191;-77
2023/11/19 02:21:25;;;;;;;10.48;2.55;;;17.40;71.20;18.70;100513.00;;;;5068282;28;20203;-77
2023/11/19 02:23:53;;;;;;;16.75;2.47;;;17.40;71.10;18.70;100528.00;;;;5072811;28;20214;-77
2023/11/19 02:26:33;;;;;;;19.10;4.20;;;17.30;71.00;18.50;100527.00;;;;5087984;28;20702;-77
2023/11/19 02:29:03;;;;;;;11.77;2.38;;;17.30;71.00;18.60;100537.00;;;;5080032;28;20243;-78
2023/11/19 02:31:30;;;;;;;9.75;2.78;;;17.20;71.00;18.60;100544.00;;;;5069466;28;20199;-77
2023/11/19 02:33:57;;;;;;;16.60;2.85;;;17.20;71.00;18.50;100534.00;;;;5072276;28;20222;-78
2023/11/19 02:36:24;;;;;;;9.38;2.45;;;17.20;71.00;18.50;100537.00;;;;5081717;28;20195;-77
2023/11/19 02:38:51;;;;;;;19.33;3.22;;;17.10;70.90;18.40;100533.00;;;;5071833;28;20831;-77
2023/11/19 02:41:18;;;;;;;15.25;3.40;;;17.10;71.00;18.40;100534.00;;;;5080033;28;20222;-78
2023/11/19 02:43:45;;;;;;;17.05;3.85;;;17.10;71.00;18.40;100532.00;;;;5067513;28;20215;-77
2023/11/19 02:46:13;;;;;;;12.77;2.65;;;17.00;70.90;18.40;100534.00;;;;5068212;28;20202;-77
2023/11/19 02:48:41;;;;;;;18.52;3.33;;;17.00;70.90;18.30;100532.00;;;;5080242;28;20195;-78
2023/11/19 02:51:09;;;;;;;15.50;2.92;;;17.00;70.90;18.30;100535.00;;;;5082578;28;20652;-77
2023/11/19 02:53:38;;;;;;;21.50;4.15;;;16.90;70.90;18.30;100521.00;;;;5087748;28;20239;-77
2023/11/19 02:56:14;;;;;;;19.20;3.30;;;16.90;70.80;18.20;100526.00;;;;5091070;28;20186;-77
2023/11/19 02:58:44;;;;;;;13.27;2.95;;;16.90;70.80;18.20;100521.00;;;;5075494;28;21048;-77
2023/11/19 03:01:22;;;;;;;21.70;3.85;;;16.80;70.70;18.10;100524.00;;;;5076228;28;20656;-77
2023/11/19 03:03:54;;;;;;;12.65;3.08;;;16.80;70.80;18.10;100523.00;;;;5071945;28;20218;-77
2023/11/19 03:06:22;;;;;;;21.27;4.50;;;16.70;70.70;18.10;100525.00;;;;5072247;28;20206;-77
2023/11/19 03:08:50;;;;;;;15.63;3.22;;;16.70;70.70;18.00;100520.00;;;;5091821;28;20260;-77
2023/11/19 03:11:17;;;;;;;15.10;3.33;;;16.70;70.70;18.00;100520.00;;;;5091809;28;20198;-77
2023/11/19 03:13:44;;;;;;;13.38;3.60;;;16.70;70.70;18.00;100523.00;;;;5091148;28;20194;-77
2023/11/19 03:16:14;;;;;;;15.27;2.70;;;16.60;70.70;17.90;100524.00;;;;5078873;28;20245;-77
2023/11/19 03:18:41;;;;;;;14.55;3.15;;;16.60;70.70;17.90;100515.00;;;;5075461;28;20434;-77
2023/11/19 03:21:08;;;;;;;22.77;4.05;;;16.50;70.60;17.80;100533.00;;;;5089326;28;20204;-77
2023/11/19 03:23:36;;;;;;;18.83;3.85;;;16.50;70.60;17.80;100521.00;;;;5088012;28;20222;-77
2023/11/19 03:26:05;;;;;;;15.98;3.00;;;16.50;70.60;17.70;100521.00;;;;5073641;28;20586;-77
2023/11/19 03:28:32;;;;;;;20.80;3.75;;;16.40;70.60;17.70;100514.00;;;;5085899;28;20197;-77
2023/11/19 03:30:59;;;;;;;24.08;3.22;;;16.40;70.60;17.70;100520.00;;;;5080003;28;20198;-77
2023/11/19 03:33:28;;;;;;;18.48;3.65;;;16.30;70.60;17.60;100517.00;;;;5090078;28;20210;-78
2023/11/19 03:35:56;;;;;;;18.50;3.08;;;16.30;70.60;17.60;100515.00;;;;5084794;28;20191;-77
2023/11/19 03:38:24;;;;;;;20.45;3.55;;;16.20;70.50;17.60;100524.00;;;;5069769;28;20199;-78
2023/11/19 03:40:51;;;;;;;16.17;3.25;;;16.20;70.60;17.50;100511.00;;;;5070983;28;20227;-77
2023/11/19 03:43:19;;;;;;;19.85;3.72;;;16.20;70.60;17.50;100504.00;;;;5089016;28;20199;-77
2023/11/19 03:45:46;;;;;;;16.08;3.05;;;16.20;70.70;17.50;100493.00;;;;5075942;28;20252;-78
2023/11/19 03:48:15;;;;;;;20.67;3.42;;;16.10;70.60;17.40;100504.00;;;;5076618;28;20195;-77
2023/11/19 03:50:44;;;;;;;14.43;3.35;;;16.10;70.60;17.40;100520.00;;;;5082371;28;20191;-77
2023/11/19 03:53:13;;;;;;;24.58;3.92;;;16.00;70.60;17.30;100514.00;;;;5080351;28;20205;-77
2023/11/19 03:55:40;;;;;;;20.92;3.95;;;16.00;70.60;17.30;100518.00;;;;5090388;28;20206;-77
2023/11/19 03:58:07;;;;;;;18.10;5.25;;;16.00;70.60;17.30;100514.00;;;;5090661;28;20205;-77
2023/11/19 04:00:34;;;;;;;16.52;2.55;;;15.90;70.60;17.30;100514.00;;;;5088323;28;20290;-77
2023/11/19 04:03:01;;;;;;;16.92;3.03;;;15.90;70.60;17.20;100523.00;;;;5085699;28;20244;-77
2023/11/19 04:05:28;;;;;;;13.38;3.28;;;15.90;70.60;17.20;100527.00;;;;5079466;28;20756;-77
2023/11/19 04:07:56;;;;;;;15.30;2.72;;;15.80;70.60;17.20;100514.00;;;;5083304;28;20207;-77
2023/11/19 04:10:23;;;;;;;20.55;3.53;;;15.80;70.70;17.20;100532.00;;;;5070371;28;20202;-76
2023/11/19 04:12:50;;;;;;;19.17;3.33;;;15.80;70.80;17.20;100528.00;;;;5078998;28;20187;-77
2023/11/19 04:15:17;;;;;;;12.15;2.42;;;15.80;70.80;17.10;100531.00;;;;5071752;28;20566;-77
2023/11/19 04:17:44;;;;;;;25.08;3.83;;;15.70;70.80;17.10;100531.00;;;;5083702;28;20194;-77
2023/11/19 04:20:13;;;;;;;14.27;3.55;;;15.70;70.80;17.10;100533.00;;;;5069904;28;20183;-77
2023/11/19 04:22:40;;;;;;;19.90;3.83;;;15.70;70.80;17.10;100537.00;;;;5089110;28;20282;-77
2023/11/19 04:25:09;;;;;;;19.02;3.30;;;15.70;70.80;17.00;100550.00;;;;5078068;28;20224;-77
2023/11/19 04:27:36;;;;;;;14.52;2.90;;;15.70;70.80;17.00;100540.00;;;;5080241;28;20202;-77
2023/11/19 04:30:04;;;;;;;23.33;3.67;;;15.60;70.70;17.00;100549.00;;;;5077626;28;20368;-77
2023/11/19 04:32:31;;;;;;;19.98;3.92;;;15.60;70.80;17.00;100545.00;;;;5071722;28;20206;-77
2023/11/19 04:34:58;;;;;;;14.40;3.13;;;15.60;70.80;17.00;100546.00;;;;5075913;28;20710;-77
2023/11/19 04:37:25;;;;;;;21.48;4.10;;;15.60;70.80;16.90;100540.00;;;;5068031;28;20199;-77
2023/11/19 04:39:52;;;;;;;18.42;3.40;;;15.60;70.80;16.90;100536.00;;;;5068796;28;20227;-76
2023/11/19 04:42:24;;;;;;;19.75;3.15;;;15.50;70.70;16.80;100539.00;;;;5083449;28;20587;-77
2023/11/19 04:44:51;;;;;;;20.65;3.70;;;15.50;70.70;16.90;100542.00;;;;5068623;28;20219;-77
2023/11/19 04:47:18;;;;;;;16.67;3.47;;;15.50;70.60;16.90;100529.00;;;;5078964;28;20202;-77
2023/11/19 04:49:44;;;;;;;18.98;3.35;;;15.50;70.70;16.80;100534.00;;;;5087391;28;20198;-77
2023/11/19 04:52:12;;;;;;;22.58;4.05;;;15.50;70.70;16.80;100529.00;;;;5085996;28;20660;-76
2023/11/19 04:54:43;;;;;;;15.90;3.08;;;15.40;70.60;16.80;100524.00;;;;5088412;28;20194;-77
2023/11/19 04:57:11;;;;;;;19.30;3.65;;;15.40;70.60;16.80;100527.00;;;;5078316;28;20262;-76
2023/11/19 04:59:39;;;;;;;17.92;3.42;;;15.40;70.70;16.80;100534.00;;;;5084390;28;20251;-77
2023/11/19 05:02:06;;;;;;;20.92;5.00;;;15.40;70.70;16.80;100529.00;;;;5085592;28;20194;-77
2023/11/19 05:04:33;;;;;;;21.17;3.22;;;15.40;70.60;16.70;100520.00;;;;5074587;28;20221;-78
2023/11/19 05:07:00;;;;;;;14.52;3.17;;;15.40;70.60;16.80;100528.00;;;;5073741;28;20556;-77
2023/11/19 05:09:27;;;;;;;13.13;3.63;;;15.40;70.60;16.70;100525.00;;;;5080594;28;20187;-77
2023/11/19 05:11:54;;;;;;;19.55;3.50;;;15.40;70.60;16.70;100537.00;;;;5079021;28;20206;-77
2023/11/19 05:14:24;;;;;;;19.63;3.30;;;15.30;70.60;16.70;100538.00;;;;5073961;28;20545;-77
2023/11/19 05:16:52;;;;;;;19.25;3.97;;;15.30;70.60;16.70;100537.00;;;;5074674;28;20247;-77
2023/11/19 05:19:19;;;;;;;13.13;2.63;;;15.30;70.60;16.70;100544.00;;;;5076452;28;20199;-77
2023/11/19 05:21:46;;;;;;;17.70;3.38;;;15.30;70.60;16.70;100551.00;;;;5074443;28;20214;-77
2023/11/19 05:24:13;;;;;;;23.77;3.65;;;15.30;71.30;16.70;100542.00;;;;5077273;28;20590;-77
2023/11/19 05:26:41;;;;;;;20.77;3.85;;;15.30;70.60;16.70;100549.00;;;;5078230;28;20198;-78
2023/11/19 05:29:08;;;;;;;19.55;3.15;;;15.30;70.60;16.70;100545.00;;;;5074087;28;20658;-77
2023/11/19 05:31:35;;;;;;;15.77;3.20;;;15.20;70.60;16.60;100542.00;;;;5073771;28;20310;-76
2023/11/19 05:34:03;;;;;;;19.50;3.90;;;15.20;70.60;16.60;100525.00;;;;5080270;28;20718;-77
2023/11/19 05:36:30;;;;;;;24.13;3.92;;;15.20;70.60;16.60;100528.00;;;;5069266;28;20202;-77
2023/11/19 05:38:58;;;;;;;19.67;3.70;;;15.20;70.60;16.60;100519.00;;;;5069028;28;20199;-76
2023/11/19 05:41:25;;;;;;;17.48;3.17;;;15.20;70.60;16.60;100534.00;;;;5070600;28;20226;-77
2023/11/19 05:43:52;;;;;;;19.77;3.53;;;15.20;70.60;16.60;100535.00;;;;5085046;28;20713;-77
2023/11/19 05:46:19;;;;;;;13.90;2.30;;;15.20;70.60;16.60;100536.00;;;;5067138;28;20195;-77
2023/11/19 05:48:46;;;;;;;16.85;3.50;;;15.20;70.60;16.60;100538.00;;;;5075021;28;20194;-76
2023/11/19 05:51:16;;;;;;;17.50;2.63;;;15.20;70.60;16.60;100535.00;;;;5080668;28;20190;-77
2023/11/19 05:53:43;;;;;;;19.35;3.85;;;15.20;70.60;16.60;100546.00;;;;5077543;28;20194;-77
2023/11/19 05:56:10;;;;;;;21.23;3.15;;;15.20;70.60;16.50;100538.00;;;;5077804;28;20194;-77
2023/11/19 05:58:37;;;;;;;22.90;4.15;;;15.20;70.60;16.60;100537.00;;;;5077967;28;20202;-78
2023/11/19 06:01:07;;;;;;;17.67;3.25;;;15.20;70.60;16.50;100541.00;;;;5069763;28;20568;-78
2023/11/19 06:03:34;;;;;;;19.63;3.70;;;15.20;70.60;16.50;100546.00;;;;5076468;28;20191;-77
2023/11/19 06:06:01;;;;;;;26.85;4.28;;;15.20;70.70;16.50;100541.00;;;;5073949;28;20226;-77
2023/11/19 06:08:30;;;;;;;20.38;4.15;;;15.10;70.70;16.50;100531.00;;;;5075049;28;20195;-77
2023/11/19 06:10:57;;;;;;;21.38;4.28;;;15.20;70.80;16.50;100535.00;;;;5078618;28;20687;-77
2023/11/19 06:13:25;;;;;;;19.13;3.13;;;15.20;70.70;16.50;100524.00;;;;5074690;28;20689;-77
2023/11/19 06:15:52;;;;;;;21.33;3.90;;;15.10;70.70;16.50;100523.00;;;;5074973;28;20195;-77
2023/11/19 06:18:20;;;;;;;15.02;3.15;;;15.20;70.70;16.50;100525.00;;;;5080939;28;20289;-78
2023/11/19 06:20:47;;;;;;;21.27;4.30;;;15.10;70.60;16.50;100530.00;;;;5074462;28;20603;-77
2023/11/19 06:23:14;;;;;;;14.45;3.03;;;15.10;70.60;16.50;100539.00;;;;5078075;28;20200;-77
2023/11/19 06:25:43;;;;;;;19.58;3.10;;;15.10;70.60;16.50;100542.00;;;;5078655;28;20652;-77
2023/11/19 06:28:10;;;;;;;16.27;3.25;;;15.10;70.60;16.50;100545.00;;;;5077550;28;20627;-76
2023/11/19 06:30:37;;;;;;;21.42;3.08;;;15.10;70.60;16.50;100541.00;;;;5078815;28;20245;-77
2023/11/19 06:33:04;;;;;;;19.50;3.67;;;15.10;70.50;16.50;100548.00;;;;5082728;28;20198;-77
2023/11/19 06:35:35;;;;;;;17.45;2.72;;;15.10;70.50;16.50;100545.00;;;;5078664;28;20214;-77
2023/11/19 06:38:04;;;;;;;17.17;4.28;;;15.10;70.50;16.50;100547.00;;;;5081250;28;20194;-77
2023/11/19 06:40:32;;;;;;;11.88;2.80;;;15.10;70.50;16.50;100553.00;;;;5078335;28;20233;-77
2023/11/19 06:43:00;;;;;;;18.20;3.67;;;15.10;70.50;16.50;100558.00;;;;5076082;28;20191;-77
2023/11/19 06:45:27;;;;;;;22.33;3.78;;;15.10;70.50;16.50;100553.00;;;;5084902;28;20325;-77
2023/11/19 06:47:54;;;;;;;22.52;3.85;;;15.10;70.60;16.50;100562.00;;;;5083337;28;20195;-77
2023/11/19 06:50:23;;;;;;;22.33;3.28;;;15.00;70.50;16.40;100569.00;;;;5083930;28;20207;-77
2023/11/19 06:52:50;;;;;;;18.25;3.50;;;15.00;70.50;16.40;100564.00;;;;5080431;28;20191;-76
2023/11/19 06:55:18;;;;;;;20.35;7.57;;;15.00;70.60;16.40;100568.00;;;;5080136;28;20197;-76
2023/11/19 06:57:45;;;;;;;19.23;4.57;;;15.00;70.60;16.40;100564.00;;;;5080964;28;20186;-76
2023/11/19 07:00:14;;;;;;;19.25;3.83;;;15.00;70.60;16.40;100567.00;;;;5080417;28;20571;-75
2023/11/19 07:02:44;;;;;;;18.75;4.07;;;15.00;70.60;16.40;100565.00;;;;5082015;28;20229;-75
2023/11/19 07:05:12;;;;;;;18.90;4.43;;;15.00;70.60;16.40;100572.00;;;;5077195;28;20222;-76
2023/11/19 07:07:40;;;;;;;19.90;3.58;;;15.00;70.60;16.40;100577.00;;;;5078902;28;20221;-76
2023/11/19 07:10:09;;;;;;;17.83;3.58;;;15.00;70.60;16.40;100581.00;;;;5075601;28;20230;-75
2023/11/19 07:12:36;;;;;;;26.02;7.70;;;15.00;70.60;16.40;100577.00;;;;5079340;28;20283;-75
2023/11/19 07:15:05;;;;;;;16.92;3.97;;;15.00;70.60;16.40;100588.00;;;;5081517;28;20194;-75
2023/11/19 07:17:34;;;;;;;17.48;3.97;;;15.00;70.60;16.40;100583.00;;;;5077768;28;20202;-75
2023/11/19 07:20:01;;;;;;;14.35;3.83;;;15.00;70.60;16.40;100598.00;;;;5077939;28;20203;-76
2023/11/19 07:22:30;;;;;;;23.23;3.95;;;14.90;70.60;16.40;100602.00;;;;5077409;28;20285;-76
2023/11/19 07:24:57;;;;;;;16.65;3.35;;;14.90;71.50;16.40;100597.00;;;;5077312;28;20226;-76
2023/11/19 07:27:24;;;;;;;16.05;3.78;;;15.00;70.90;16.40;100608.00;;;;5075320;28;20266;-75
2023/11/19 07:29:51;;;;;;;17.33;3.67;;;15.00;71.00;16.50;100597.00;;;;5081383;28;20264;-76
2023/11/19 07:32:18;;;;;;;18.95;3.67;;;15.00;71.10;16.50;100610.00;;;;5076529;28;20202;-76
2023/11/19 07:34:46;;;;;;;21.42;5.15;;;15.00;71.10;16.50;100606.00;;;;5069762;28;20218;-76
2023/11/19 07:37:13;;;;;;;23.15;5.20;;;15.00;71.80;16.60;100605.00;;;;5077219;28;20211;-75
2023/11/19 07:39:40;;;;;;;17.58;3.65;;;15.10;71.20;16.60;100601.00;;;;5076964;28;20233;-75
2023/11/19 07:42:09;;;;;;;17.75;4.85;;;15.10;71.20;16.60;100600.00;;;;5084672;28;20206;-75
2023/11/19 07:44:36;;;;;;;18.60;4.63;;;15.10;71.20;16.60;100609.00;;;;5083465;28;20202;-75
2023/11/19 07:47:04;;;;;;;16.15;3.83;;;15.10;71.20;16.70;100609.00;;;;5078274;28;20198;-75
2023/11/19 07:49:31;;;;;;;22.75;4.40;;;15.20;71.20;16.70;100608.00;;;;5082075;28;20241;-75
2023/11/19 07:52:00;;;;;;;21.05;3.63;;;15.20;71.20;16.70;100618.00;;;;5078900;28;20591;-75
2023/11/19 07:54:27;;;;;;;17.20;3.42;;;15.20;71.10;16.70;100603.00;;;;5080190;28;20202;-75
2023/11/19 07:56:54;;;;;;;21.92;3.50;;;15.20;71.00;16.70;100603.00;;;;5083502;28;20571;-74
2023/11/19 07:59:21;;;;;;;25.70;3.67;;;15.30;71.00;16.70;100600.00;;;;5073171;28;20567;-75
2023/11/19 08:01:48;;;;;;;24.90;3.97;;;15.30;70.90;16.70;100604.00;;;;5077713;28;20191;-75
2023/11/19 08:04:15;;;;;;;15.48;3.42;;;15.30;70.90;16.70;100604.00;;;;5069264;28;20252;-75
2023/11/19 08:06:42;;;;;;;10.90;2.83;;;15.30;70.80;16.80;100609.00;;;;5070195;28;20219;-75
2023/11/19 08:09:13;;;;;;;14.73;3.17;;;15.30;70.90;16.80;100612.00;;;;5075736;28;20199;-75
2023/11/19 08:11:41;;;;;;;14.60;3.13;;;15.30;71.00;16.80;100609.00;;;;5071962;28;20213;-76
2023/11/19 08:14:08;;;;;;;24.73;5.93;;;15.30;70.90;16.80;100607.00;;;;5081860;28;20194;-76
2023/11/19 08:16:36;;;;;;;23.85;4.80;;;15.40;71.00;16.90;100605.00;;;;5075499;28;20202;-76
2023/11/19 08:19:03;;;;;;;17.75;4.68;;;15.30;71.00;16.90;100614.00;;;;5084469;28;20198;-76
2023/11/19 08:21:30;;;;;;;17.50;3.67;;;15.40;71.10;16.90;100607.00;;;;5088633;28;20205;-76
2023/11/19 08:23:57;;;;;;;13.25;3.22;;;15.40;71.00;17.00;100609.00;;;;5075898;28;20579;-76
2023/11/19 08:26:26;;;;;;;18.38;3.15;;;15.50;71.00;17.00;100608.00;;;;5079120;28;20698;-75
2023/11/19 08:28:53;;;;;;;19.65;3.35;;;15.50;71.00;17.00;100615.00;;;;5079210;28;20203;-76
2023/11/19 08:31:20;;;;;;;9.43;3.20;;;15.50;70.90;17.10;100615.00;;;;5086049;28;20208;-75
2023/11/19 08:33:47;;;;;;;20.63;3.15;;;15.50;70.90;17.10;100612.00;;;;5075870;28;20229;-75
2023/11/19 08:36:17;;;;;;;14.10;4.03;;;15.60;70.90;17.10;100613.00;;;;5070140;28;20206;-76
2023/11/19 08:38:44;;;;;;;20.33;3.45;;;15.60;70.80;17.10;100609.00;;;;5075671;28;20571;-76
2023/11/19 08:41:11;;;;;;;17.27;3.22;;;15.60;70.70;17.20;100619.00;;;;5076410;28;20718;-76
2023/11/19 08:43:40;;;;;;;22.92;3.65;;;15.70;70.80;17.20;100616.00;;;;5077640;28;20202;-76
2023/11/19 08:46:11;;;;;;;15.73;3.17;;;15.70;70.70;17.20;100616.00;;;;5071075;28;20256;-76
2023/11/19 08:48:38;;;;;;;26.38;4.57;;;15.70;70.70;17.30;100620.00;;;;5070991;28;20248;-76
2023/11/19 08:51:06;;;;;;;13.90;3.15;;;15.70;70.70;17.30;100616.00;;;;5070791;28;20619;-76
2023/11/19 08:53:33;;;;;;;19.35;3.05;;;15.80;70.70;17.30;100620.00;;;;5073575;28;20213;-76
2023/11/19 08:56:02;;;;;;;14.77;3.45;;;15.80;70.70;17.40;100631.00;;;;5072192;28;20204;-75
2023/11/19 08:58:30;;;;;;;13.68;2.67;;;15.80;70.70;17.40;100624.00;;;;5069964;28;20203;-76
2023/11/19 09:00:58;;;;;;;17.98;3.97;;;15.90;70.70;17.40;100626.00;;;;5078370;28;20199;-76
2023/11/19 09:03:26;;;;;;;17.48;3.70;;;15.90;70.60;17.50;100630.00;;;;5080779;28;20220;-76
2023/11/19 09:05:53;;;;;;;24.33;5.03;;;15.90;70.60;17.50;100628.00;;;;5070729;28;20230;-76
2023/11/19 09:08:20;;;;;;;11.38;2.90;;;16.00;70.50;17.50;100629.00;;;;5074007;28;20206;-76
2023/11/19 09:10:47;;;;;;;14.68;3.13;;;16.00;70.50;17.60;100623.00;;;;5077203;28;20199;-76
2023/11/19 09:13:14;;;;;;;19.38;3.28;;;16.10;70.40;17.60;100627.00;;;;5079942;28;20655;-76
2023/11/19 09:15:42;;;;;;;17.05;3.95;;;16.10;70.30;17.70;100625.00;;;;5079371;28;20226;-76
2023/11/19 09:18:10;;;;;;;22.05;4.95;;;16.10;70.30;17.70;100626.00;;;;5075471;28;20206;-77
2023/11/19 09:20:38;;;;;;;21.25;4.15;;;16.20;70.40;17.80;100617.00;;;;5077413;28;20198;-77
2023/11/19 09:23:06;;;;;;;15.98;4.20;;;16.30;70.50;17.80;100616.00;;;;5079008;28;20260;-76
2023/11/19 09:25:32;;;;;;;23.67;4.07;;;16.30;70.30;17.80;100619.00;;;;5076289;28;20221;-77
2023/11/19 09:28:00;;;;;;;15.63;3.22;;;16.30;70.20;17.90;100609.00;;;;5071430;28;20668;-76
2023/11/19 09:30:27;;;;;;;20.63;4.43;;;16.40;70.00;17.90;100621.00;;;;5071437;28;20191;-76
2023/11/19 09:32:54;;;;;;;20.88;4.18;;;16.40;69.90;17.90;100623.00;;;;5069004;28;20672;-76
2023/11/19 09:35:22;;;;;;;14.38;2.45;;;16.40;69.80;17.90;100626.00;;;;5073007;28;20210;-75
2023/11/19 09:37:49;;;;;;;13.23;3.28;;;16.40;69.70;17.90;100628.00;;;;5077964;28;20203;-75
2023/11/19 09:40:17;;;;;;;25.48;4.95;;;16.50;69.80;18.00;100627.00;;;;5071901;28;20708;-75
2023/11/19 09:42:46;;;;;;;14.18;3.75;;;16.50;69.80;18.00;100632.00;;;;5067758;28;20591;-75
2023/11/19 09:45:16;;;;;;;17.42;3.53;;;16.50;69.90;18.10;100636.00;;;;5068258;28;20190;-75
2023/11/19 09:47:45;;;;;;;11.68;2.80;;;16.60;70.00;18.20;100630.00;;;;5077557;28;20222;-76
2023/11/19 09:50:17;;;;;;;16.42;3.40;;;16.70;70.10;18.20;100632.00;;;;5069868;28;20226;-76
2023/11/19 09:52:47;;;;;;;17.58;3.72;;;16.70;70.10;18.30;100619.00;;;;5067808;28;20199;-76
2023/11/19 09:55:14;;;;;;;15.70;2.83;;;16.80;69.80;18.30;100619.00;;;;5069339;28;20194;-76
2023/11/19 09:57:43;;;;;;;17.90;4.15;;;16.80;69.60;18.40;100626.00;;;;5086308;28;20655;-76
2023/11/19 10:00:14;;;;;;;16.65;2.92;;;16.90;69.50;18.40;100620.00;;;;5088779;28;20259;-76
2023/11/19 10:02:44;;;;;;;17.40;3.08;;;16.90;69.20;18.40;100611.00;;;;5075563;28;20198;-75
2023/11/19 10:05:12;;;;;;;19.38;3.17;;;16.90;69.00;18.40;100613.00;;;;5085062;28;20284;-75
2023/11/19 10:07:39;;;;;;;16.77;3.28;;;16.90;68.90;18.40;100613.00;;;;5072846;28;20741;-75
2023/11/19 10:10:10;;;;;;;16.02;2.70;;;17.00;68.80;18.40;100617.00;;;;5080930;28;20198;-75
2023/11/19 10:12:38;;;;;;;18.95;3.17;;;17.00;68.70;18.40;100615.00;;;;5075288;28;20655;-75
2023/11/19 10:15:08;;;;;;;18.88;3.40;;;17.00;68.70;18.40;100612.00;;;;5072151;28;20203;-75
2023/11/19 10:17:35;;;;;;;17.52;3.03;;;17.00;68.70;18.50;100594.00;;;;5072136;28;20289;-75
2023/11/19 10:20:04;;;;;;;12.35;2.58;;;17.00;68.60;18.50;100596.00;;;;5092829;28;20201;-76
2023/11/19 10:22:31;;;;;;;17.80;2.85;;;17.00;68.70;18.50;100598.00;;;;5081717;28;20578;-76
2023/11/19 10:24:58;;;;;;;19.02;3.42;;;17.00;68.50;18.50;100592.00;;;;5071699;28;20203;-76
2023/11/19 10:27:26;;;;;;;18.35;3.67;;;17.10;68.60;18.50;100583.00;;;;5077417;28;20807;-75
2023/11/19 10:29:53;;;;;;;15.93;2.95;;;17.10;68.50;18.60;100586.00;;;;5080358;28;20576;-76
2023/11/19 10:32:20;;;;;;;15.13;3.45;;;17.10;68.50;18.60;100589.00;;;;5078507;28;20199;-75
2023/11/19 10:34:47;;;;;;;13.15;3.28;;;17.20;68.50;18.60;100589.00;;;;5074052;28;20214;-76
2023/11/19 10:37:31;;;;;;;20.42;3.03;;;17.10;68.20;18.50;100593.00;;;;5079096;28;20665;-76
2023/11/19 10:39:58;;;;;;;21.50;3.58;;;17.20;67.70;18.70;100574.00;;;;5079306;28;20768;-76
2023/11/19 10:42:27;;;;;;;15.50;2.20;;;17.20;68.20;18.70;100577.00;;;;5072695;28;20198;-75